Time;durP1;ratioP1;P1;durP2;ratioP2;P2;SDS_P1;SDS_P2;PMS_P1;PMS_P2;Temp;Humidity;BMP_temperature;BMP_pressure;BME280_temperature;BME280_humidity;BME280_pressure;Samples;Min_cycle;Max_cycle;Signal;HPM_P1;HPM_P2
2022/10/05 00:01:45;;;;;;;3.80;3.08;;;10.40;99.90;;;;;;5086723;28;20390;-73
2022/10/05 00:04:14;;;;;;;6.05;2.90;;;10.30;99.90;;;;;;5066348;28;20416;-73
2022/10/05 00:06:41;;;;;;;3.33;2.88;;;10.30;99.90;;;;;;5088124;28;20389;-73
2022/10/05 00:09:15;;;;;;;3.00;2.80;;;10.20;99.90;;;;;;5088425;28;20896;-74
2022/10/05 00:11:42;;;;;;;3.10;2.80;;;10.30;99.90;;;;;;5089579;28;20386;-73
2022/10/05 00:14:26;;;;;;;2.80;2.60;;;10.40;99.90;;;;;;5069883;28;20429;-73
2022/10/05 00:16:52;;;;;;;3.22;2.92;;;10.40;99.90;;;;;;5081709;28;22356;-73
2022/10/05 00:19:36;;;;;;;3.33;3.03;;;10.40;99.90;;;;;;5085776;28;20504;-73
2022/10/05 00:22:16;;;;;;;4.78;3.13;;;10.30;99.90;;;;;;5091400;28;21046;-73
2022/10/05 00:24:43;;;;;;;4.93;3.08;;;10.30;99.90;;;;;;5084531;28;20463;-73
2022/10/05 00:27:24;;;;;;;3.47;2.80;;;10.30;99.90;;;;;;5092653;28;20388;-73
2022/10/05 00:29:52;;;;;;;3.30;3.00;;;10.30;99.90;;;;;;5086335;28;20485;-73
2022/10/05 00:32:18;;;;;;;3.05;2.85;;;10.20;99.90;;;;;;5092526;28;20401;-73
2022/10/05 00:34:45;;;;;;;3.47;2.97;;;10.30;99.90;;;;;;5087918;28;20451;-73
2022/10/05 00:37:12;;;;;;;3.33;3.00;;;10.20;99.90;;;;;;5092435;28;20453;-73
2022/10/05 00:39:40;;;;;;;2.90;2.70;;;10.30;99.90;;;;;;5091736;28;20467;-73
2022/10/05 00:42:22;;;;;;;2.50;2.30;;;10.30;99.90;;;;;;5091810;28;20433;-74
2022/10/05 00:45:10;;;;;;;2.58;2.22;;;10.30;99.90;;;;;;5090582;28;20389;-72
2022/10/05 00:47:59;;;;;;;5.43;2.90;;;10.30;99.90;;;;;;5087695;28;20394;-74
2022/10/05 00:50:34;;;;;;;2.50;2.30;;;10.20;99.90;;;;;;5090322;28;20401;-74
2022/10/05 00:53:15;;;;;;;4.70;2.40;;;10.30;99.90;;;;;;5091613;28;20375;-73
2022/10/05 00:56:06;;;;;;;2.63;2.42;;;10.40;99.90;;;;;;5088914;28;20429;-74
2022/10/05 00:58:52;;;;;;;2.25;2.15;;;10.40;99.90;;;;;;5072871;28;20413;-74
2022/10/05 01:01:34;;;;;;;2.42;2.30;;;10.30;99.90;;;;;;5088137;28;20394;-72
2022/10/05 01:04:09;;;;;;;2.70;2.50;;;10.40;99.90;;;;;;5091056;28;20429;-72
2022/10/05 01:06:52;;;;;;;2.50;2.30;;;10.30;99.90;;;;;;5083628;28;20485;-73
2022/10/05 01:09:36;;;;;;;2.60;2.40;;;10.40;99.90;;;;;;5090527;28;20412;-72
2022/10/05 01:12:10;;;;;;;3.10;2.50;;;10.40;99.90;;;;;;5073429;28;20444;-72
2022/10/05 01:14:36;;;;;;;2.80;2.10;;;10.30;99.90;;;;;;5083067;28;20406;-72
2022/10/05 01:17:19;;;;;;;2.50;2.30;;;10.40;99.90;;;;;;5065992;28;20811;-73
2022/10/05 01:20:25;;;;;;;2.15;1.95;;;10.40;99.90;;;;;;5086625;28;20818;-73
2022/10/05 01:23:25;;;;;;;3.10;2.30;;;10.40;99.90;;;;;;5084402;28;20484;-73
2022/10/05 01:26:21;;;;;;;2.53;2.33;;;10.40;99.90;;;;;;5082888;28;20997;-72
2022/10/05 01:29:14;;;;;;;2.65;2.45;;;10.30;99.90;;;;;;5084631;28;20550;-72
2022/10/05 01:32:07;;;;;;;2.65;2.33;;;10.40;99.90;;;;;;5081892;28;20398;-73
2022/10/05 01:35:14;;;;;;;2.83;2.63;;;10.30;99.90;;;;;;5080821;28;20463;-72
2022/10/05 01:37:57;;;;;;;2.58;2.38;;;10.20;99.90;;;;;;5085714;28;20374;-73
2022/10/05 01:41:10;;;;;;;2.63;2.30;;;10.30;99.90;;;;;;5090318;28;20760;-73
2022/10/05 01:43:47;;;;;;;2.17;2.05;;;10.20;99.90;;;;;;5008364;28;20930;-72
2022/10/05 01:46:29;;;;;;;3.10;2.40;;;10.30;99.90;;;;;;5083990;28;20440;-72
2022/10/05 01:49:10;;;;;;;2.53;2.33;;;10.30;99.90;;;;;;5089850;28;20412;-73
2022/10/05 01:52:13;;;;;;;3.30;2.20;;;10.40;99.90;;;;;;5089271;28;20542;-73
2022/10/05 01:54:59;;;;;;;3.50;2.50;;;10.30;99.90;;;;;;5088197;28;20425;-73
2022/10/05 01:57:46;;;;;;;2.60;2.20;;;10.30;99.90;;;;;;5091325;28;20384;-73
2022/10/05 02:00:16;;;;;;;2.70;2.50;;;10.30;99.90;;;;;;5089485;28;20471;-73
2022/10/05 02:02:57;;;;;;;2.60;2.40;;;10.30;99.90;;;;;;5090881;28;20406;-73
2022/10/05 02:05:37;;;;;;;3.80;2.40;;;10.30;99.90;;;;;;5087683;28;20553;-73
2022/10/05 02:08:11;;;;;;;3.65;2.70;;;10.30;99.90;;;;;;5086735;28;20780;-73
2022/10/05 02:10:45;;;;;;;2.60;2.40;;;10.30;99.90;;;;;;5075335;28;20397;-73
2022/10/05 02:13:17;;;;;;;4.85;2.33;;;10.30;99.90;;;;;;5089703;28;20378;-73
2022/10/05 02:15:53;;;;;;;3.67;2.20;;;10.20;99.90;;;;;;5089838;28;20433;-73
2022/10/05 02:18:23;;;;;;;4.32;2.45;;;10.30;99.90;;;;;;5089712;28;20413;-73
2022/10/05 02:20:53;;;;;;;3.20;2.03;;;10.20;99.90;;;;;;5090344;28;20859;-73
2022/10/05 02:23:24;;;;;;;2.85;2.60;;;10.20;99.90;;;;;;5082432;28;20793;-73
2022/10/05 02:25:51;;;;;;;2.85;2.40;;;10.20;99.90;;;;;;5090127;28;21065;-73
2022/10/05 02:28:37;;;;;;;3.05;2.13;;;10.20;99.90;;;;;;5090719;28;20382;-73
2022/10/05 02:31:10;;;;;;;2.60;2.40;;;10.10;99.90;;;;;;5090697;28;20385;-73
2022/10/05 02:33:35;;;;;;;2.78;2.58;;;10.20;99.90;;;;;;5089812;28;20401;-73
2022/10/05 02:36:15;;;;;;;2.75;2.30;;;10.20;99.90;;;;;;5090299;28;20705;-73
2022/10/05 02:39:07;;;;;;;2.65;2.45;;;10.10;99.90;;;;;;5077609;28;20399;-73
2022/10/05 02:41:38;;;;;;;2.72;2.15;;;10.10;99.90;;;;;;5081549;28;20406;-73
2022/10/05 02:44:23;;;;;;;2.70;2.50;;;10.10;99.90;;;;;;5081822;28;20414;-73
2022/10/05 02:47:07;;;;;;;2.63;2.42;;;10.10;99.90;;;;;;5089202;28;20394;-73
2022/10/05 02:49:50;;;;;;;3.30;3.00;;;10.10;99.90;;;;;;5086516;28;20416;-73
2022/10/05 02:52:48;;;;;;;3.42;2.13;;;10.20;99.90;;;;;;5087596;28;20404;-73
2022/10/05 02:55:18;;;;;;;3.67;2.17;;;10.10;99.90;;;;;;5084626;28;21009;-73
2022/10/05 02:58:04;;;;;;;2.70;2.50;;;10.10;99.90;;;;;;5089665;28;20398;-73
2022/10/05 03:00:35;;;;;;;2.85;2.50;;;10.10;99.90;;;;;;5070032;28;20406;-73
2022/10/05 03:03:08;;;;;;;3.67;2.60;;;10.10;99.90;;;;;;5082729;28;20393;-73
2022/10/05 03:05:39;;;;;;;2.80;2.60;;;10.30;99.90;;;;;;5084970;28;20820;-73
2022/10/05 03:08:19;;;;;;;4.65;2.60;;;10.30;99.90;;;;;;5084683;28;20390;-73
2022/10/05 03:10:48;;;;;;;2.75;2.50;;;10.30;99.90;;;;;;5086425;28;20401;-73
2022/10/05 03:13:35;;;;;;;2.75;2.45;;;10.30;99.90;;;;;;5080375;28;20747;-73
2022/10/05 03:16:14;;;;;;;2.83;2.63;;;10.40;99.90;;;;;;5089676;28;20476;-73
2022/10/05 03:18:52;;;;;;;3.65;2.60;;;10.40;99.90;;;;;;5082968;28;20427;-73
2022/10/05 03:21:51;;;;;;;5.75;3.30;;;10.50;99.90;;;;;;5086357;28;20705;-73
2022/10/05 03:24:31;;;;;;;2.90;2.47;;;10.40;99.90;;;;;;5083745;28;20487;-73
2022/10/05 03:27:14;;;;;;;3.35;2.40;;;10.50;99.90;;;;;;5088292;28;20406;-73
2022/10/05 03:30:07;;;;;;;3.10;2.60;;;10.50;99.90;;;;;;5082728;28;20423;-73
2022/10/05 03:32:35;;;;;;;4.60;3.00;;;10.50;99.90;;;;;;5066917;28;20397;-73
2022/10/05 03:35:16;;;;;;;3.30;2.65;;;10.60;99.90;;;;;;5088807;28;20390;-73
2022/10/05 03:37:56;;;;;;;2.78;2.58;;;10.60;99.90;;;;;;5090070;28;20385;-73
2022/10/05 03:41:04;;;;;;;4.20;2.40;;;10.60;99.90;;;;;;5072083;28;20754;-73
2022/10/05 03:43:54;;;;;;;2.90;2.60;;;10.50;99.90;;;;;;5027197;28;20401;-73
2022/10/05 03:46:31;;;;;;;2.78;2.30;;;10.50;99.90;;;;;;5024984;28;20817;-73
2022/10/05 03:49:20;;;;;;;2.70;2.40;;;10.50;99.90;;;;;;5068452;28;20458;-73
2022/10/05 03:51:53;;;;;;;3.30;2.60;;;10.40;99.90;;;;;;5071819;28;20417;-73
2022/10/05 03:54:38;;;;;;;3.58;2.88;;;10.40;99.90;;;;;;5089907;28;20788;-73
2022/10/05 03:57:14;;;;;;;2.88;2.55;;;10.50;99.90;;;;;;5093005;28;20435;-73
2022/10/05 03:59:55;;;;;;;2.75;2.55;;;10.50;99.90;;;;;;5093881;28;20410;-73
2022/10/05 04:02:27;;;;;;;3.85;2.70;;;10.60;99.90;;;;;;5094023;28;20541;-73
2022/10/05 04:05:08;;;;;;;3.40;3.10;;;10.50;99.90;;;;;;5093861;28;20511;-73
2022/10/05 04:08:00;;;;;;;2.67;2.40;;;10.40;99.90;;;;;;5093584;28;20883;-73
2022/10/05 04:10:37;;;;;;;3.15;2.85;;;10.50;99.90;;;;;;5075810;28;20394;-73
2022/10/05 04:13:14;;;;;;;2.80;2.60;;;10.60;99.90;;;;;;5093436;28;20871;-73
2022/10/05 04:16:09;;;;;;;3.83;2.70;;;10.60;99.90;;;;;;5075331;28;20398;-73
2022/10/05 04:18:43;;;;;;;3.30;2.92;;;10.60;99.90;;;;;;5069102;28;20504;-73
2022/10/05 04:21:32;;;;;;;4.38;3.03;;;10.70;99.90;;;;;;5093668;28;20396;-73
2022/10/05 04:24:11;;;;;;;4.40;2.80;;;10.60;99.90;;;;;;5072680;28;20398;-73
2022/10/05 04:26:37;;;;;;;2.70;2.50;;;10.70;99.90;;;;;;5085455;28;20441;-73
2022/10/05 04:29:29;;;;;;;3.13;2.65;;;10.70;99.90;;;;;;5093616;28;20816;-73
2022/10/05 04:32:14;;;;;;;4.30;2.70;;;10.70;99.90;;;;;;5070804;28;20402;-73
2022/10/05 04:34:57;;;;;;;3.35;2.50;;;10.70;99.90;;;;;;5088833;28;20795;-73
2022/10/05 04:37:46;;;;;;;8.07;3.60;;;10.70;99.90;;;;;;5091626;28;20398;-73
2022/10/05 04:40:16;;;;;;;3.33;3.03;;;10.70;99.90;;;;;;5094523;28;20810;-73
2022/10/05 04:42:52;;;;;;;3.00;2.80;;;10.70;99.90;;;;;;5088642;28;21146;-73
2022/10/05 04:45:32;;;;;;;2.88;2.67;;;10.70;99.90;;;;;;5086572;28;20409;-73
2022/10/05 04:48:16;;;;;;;4.60;2.70;;;10.70;99.90;;;;;;5086043;28;20394;-73
2022/10/05 04:50:59;;;;;;;3.90;2.83;;;10.70;99.90;;;;;;5066892;28;20477;-72
2022/10/05 04:53:29;;;;;;;3.63;2.80;;;10.80;99.90;;;;;;5083956;28;20489;-73
2022/10/05 04:56:20;;;;;;;3.90;2.80;;;10.80;99.90;;;;;;5083329;28;20406;-73
2022/10/05 04:58:54;;;;;;;3.40;3.10;;;10.80;99.90;;;;;;5083606;28;20485;-73
2022/10/05 05:01:39;;;;;;;3.38;3.08;;;10.90;99.90;;;;;;5088753;28;20403;-72
2022/10/05 05:04:17;;;;;;;6.03;3.10;;;10.90;99.90;;;;;;5086818;28;20421;-73
2022/10/05 05:07:00;;;;;;;3.58;3.13;;;10.90;99.90;;;;;;5082279;28;20393;-73
2022/10/05 05:09:34;;;;;;;3.55;3.20;;;11.00;99.90;;;;;;5087362;28;21040;-73
2022/10/05 05:12:33;;;;;;;4.03;3.00;;;11.00;99.90;;;;;;5091320;28;20393;-72
2022/10/05 05:15:05;;;;;;;4.18;3.45;;;10.90;99.90;;;;;;5091738;28;20396;-72
2022/10/05 05:17:47;;;;;;;3.78;3.47;;;10.90;99.90;;;;;;5082089;28;20413;-72
2022/10/05 05:20:44;;;;;;;4.93;3.53;;;10.80;99.90;;;;;;5085223;28;20588;-72
2022/10/05 05:23:26;;;;;;;6.33;3.30;;;10.70;99.90;;;;;;5087811;28;20394;-72
2022/10/05 05:26:10;;;;;;;3.78;3.30;;;10.80;99.90;;;;;;5091829;28;20390;-72
2022/10/05 05:29:07;;;;;;;3.95;3.55;;;10.80;99.90;;;;;;5092217;28;20389;-72
2022/10/05 05:32:00;;;;;;;3.40;3.05;;;10.90;99.90;;;;;;5088609;28;20524;-72
2022/10/05 05:34:33;;;;;;;3.20;2.90;;;10.90;99.90;;;;;;5067509;28;20484;-72
2022/10/05 05:37:39;;;;;;;3.15;2.88;;;11.00;99.90;;;;;;5089610;28;20402;-72
2022/10/05 05:40:22;;;;;;;3.20;2.90;;;10.90;99.90;;;;;;5054513;28;20421;-72
2022/10/05 05:42:58;;;;;;;4.10;3.20;;;10.90;99.90;;;;;;5083476;28;21279;-72
2022/10/05 05:46:06;;;;;;;4.00;3.13;;;10.90;99.90;;;;;;5068183;28;20432;-72
2022/10/05 05:48:38;;;;;;;3.45;2.90;;;10.90;99.90;;;;;;5079314;28;20555;-72
2022/10/05 05:51:14;;;;;;;3.55;3.17;;;11.00;99.90;;;;;;5076375;28;20434;-72
2022/10/05 05:53:44;;;;;;;3.55;2.70;;;10.90;99.90;;;;;;5070902;28;20399;-72
2022/10/05 05:56:12;;;;;;;3.38;3.08;;;11.00;99.90;;;;;;5071220;28;20383;-72
2022/10/05 05:58:50;;;;;;;3.20;2.90;;;11.00;99.90;;;;;;5071398;28;20922;-71
2022/10/05 06:01:32;;;;;;;3.13;2.58;;;11.00;99.90;;;;;;5080307;28;20394;-72
2022/10/05 06:04:11;;;;;;;4.30;2.90;;;11.10;99.90;;;;;;5070360;28;20374;-72
2022/10/05 06:06:41;;;;;;;3.78;3.10;;;11.10;99.90;;;;;;5086109;28;20450;-72
2022/10/05 06:09:32;;;;;;;4.17;3.10;;;11.10;99.90;;;;;;5065306;28;20418;-72
2022/10/05 06:12:04;;;;;;;3.17;2.80;;;11.30;99.90;;;;;;5084133;28;20417;-72
2022/10/05 06:14:39;;;;;;;3.15;2.85;;;11.40;99.90;;;;;;5089534;28;20394;-72
2022/10/05 06:17:16;;;;;;;4.28;3.30;;;11.30;99.90;;;;;;5078948;28;20385;-72
2022/10/05 06:19:43;;;;;;;5.38;3.10;;;11.30;99.90;;;;;;5087442;28;20505;-72
2022/10/05 06:22:27;;;;;;;3.50;2.80;;;11.30;99.90;;;;;;5084071;28;20431;-72
2022/10/05 06:25:11;;;;;;;2.75;2.55;;;11.40;99.90;;;;;;5079205;28;20403;-73
2022/10/05 06:28:07;;;;;;;3.60;3.00;;;11.30;99.90;;;;;;5093133;28;20861;-72
2022/10/05 06:30:58;;;;;;;3.67;3.03;;;11.40;99.90;;;;;;5082896;28;20400;-72
2022/10/05 06:33:50;;;;;;;3.42;2.97;;;11.50;99.90;;;;;;5088249;28;20418;-73
2022/10/05 06:36:27;;;;;;;4.40;3.50;;;11.60;99.90;;;;;;5088079;28;20385;-73
2022/10/05 06:39:01;;;;;;;3.70;3.13;;;11.70;99.90;;;;;;5090681;28;20542;-73
2022/10/05 06:41:40;;;;;;;3.38;3.08;;;11.70;99.90;;;;;;5084385;28;20398;-73
2022/10/05 06:44:14;;;;;;;3.40;2.87;;;11.80;99.90;;;;;;5084194;28;20398;-73
2022/10/05 06:46:48;;;;;;;4.25;3.15;;;11.80;99.90;;;;;;5080198;28;20513;-73
2022/10/05 06:49:34;;;;;;;4.10;2.90;;;11.90;99.90;;;;;;5087365;28;20443;-73
2022/10/05 06:52:13;;;;;;;2.90;2.60;;;12.00;99.90;;;;;;5084470;28;20402;-73
2022/10/05 06:54:42;;;;;;;5.97;3.20;;;12.20;99.90;;;;;;5086040;28;20481;-73
2022/10/05 06:57:53;;;;;;;4.85;2.88;;;12.30;99.90;;;;;;5087990;28;20405;-73
2022/10/05 07:00:26;;;;;;;3.40;3.00;;;12.50;99.90;;;;;;5080874;28;20412;-73
2022/10/05 07:02:59;;;;;;;3.33;2.70;;;12.50;99.90;;;;;;5073748;28;20395;-73
2022/10/05 07:05:57;;;;;;;4.93;3.08;;;12.60;99.90;;;;;;5078035;28;20447;-73
2022/10/05 07:08:42;;;;;;;4.35;2.75;;;12.50;99.90;;;;;;5089135;28;20408;-73
2022/10/05 07:11:41;;;;;;;4.28;2.97;;;12.50;99.90;;;;;;5089356;28;20890;-74
2022/10/05 07:14:54;;;;;;;;;;;;;;;;;;;;;
2022/10/05 07:17:34;;;;;;;4.25;2.90;;;12.90;99.90;;;;;;5128659;22;20452;-74
2022/10/05 07:20:31;;;;;;;5.00;2.97;;;13.00;99.90;;;;;;5128714;28;20407;-74
2022/10/05 07:23:24;;;;;;;3.10;2.80;;;13.20;99.90;;;;;;5124635;28;20945;-74
2022/10/05 07:26:16;;;;;;;4.82;3.13;;;13.20;99.90;;;;;;5137018;27;20930;-72
2022/10/05 07:29:06;;;;;;;2.80;2.60;;;13.20;99.90;;;;;;5123295;28;20419;-72
2022/10/05 07:31:31;;;;;;;4.63;2.33;;;13.40;99.90;;;;;;5122214;27;20397;-72
2022/10/05 07:34:08;;;;;;;2.70;2.50;;;13.50;99.90;;;;;;5126379;27;20380;-72
2022/10/05 07:40:04;;;;;;;2.90;2.70;;;13.60;99.90;;;;;;5114662;28;20499;-72
2022/10/05 07:42:45;;;;;;;5.95;2.63;;;13.80;99.90;;;;;;5115633;27;20376;-73
2022/10/05 07:45:32;;;;;;;4.00;2.80;;;14.00;99.90;;;;;;5119828;27;20444;-72
2022/10/05 07:48:05;;;;;;;3.30;3.00;;;14.10;99.90;;;;;;5135270;27;20771;-72
2022/10/05 07:50:42;;;;;;;2.97;2.70;;;14.10;99.90;;;;;;5134944;27;20362;-72
2022/10/05 07:53:22;;;;;;;4.45;3.00;;;14.20;99.90;;;;;;5134952;27;20426;-72
2022/10/05 07:55:53;;;;;;;3.93;3.00;;;14.40;99.90;;;;;;5134930;27;20371;-72
2022/10/05 07:58:28;;;;;;;3.97;2.90;;;14.50;99.90;;;;;;5134616;27;20393;-72
2022/10/05 08:01:08;;;;;;;3.00;2.70;;;14.70;99.90;;;;;;5134542;27;20448;-72
2022/10/05 08:03:53;;;;;;;4.47;2.97;;;14.80;99.90;;;;;;5134720;27;20362;-74
2022/10/05 08:06:50;;;;;;;2.60;2.40;;;15.00;99.90;;;;;;5134806;27;20375;-72
2022/10/05 08:09:31;;;;;;;4.53;2.60;;;15.30;99.90;;;;;;5134651;27;20465;-72
2022/10/05 08:12:09;;;;;;;2.90;2.30;;;15.40;99.90;;;;;;5128431;27;20406;-72
2022/10/05 08:14:58;;;;;;;3.38;1.80;;;15.60;99.90;;;;;;5133223;27;21120;-73
2022/10/05 08:17:53;;;;;;;2.80;2.10;;;16.60;99.90;;;;;;5132976;27;20394;-72
2022/10/05 08:20:56;;;;;;;2.60;1.50;;;16.90;99.90;;;;;;5134487;27;21067;-72
2022/10/05 08:23:44;;;;;;;2.17;1.30;;;17.40;99.90;;;;;;5133252;27;20387;-73
2022/10/05 08:26:39;;;;;;;3.20;1.52;;;17.60;99.90;;;;;;5133553;27;20402;-72
2022/10/05 08:29:31;;;;;;;2.80;1.40;;;18.20;99.90;;;;;;5134794;27;20371;-72
2022/10/05 08:32:28;;;;;;;1.77;1.30;;;18.20;99.90;;;;;;5113903;27;20750;-73
2022/10/05 08:35:12;;;;;;;1.80;1.35;;;18.30;99.90;;;;;;5113650;28;20537;-72
2022/10/05 08:37:41;;;;;;;1.60;1.50;;;18.80;99.90;;;;;;5113703;28;20384;-72
2022/10/05 08:40:23;;;;;;;1.40;1.13;;;18.80;99.90;;;;;;5112281;28;20408;-72
2022/10/05 08:43:10;;;;;;;1.90;1.40;;;19.00;99.90;;;;;;5113134;28;20386;-72
2022/10/05 08:45:56;;;;;;;1.30;1.20;;;19.00;99.90;;;;;;5120658;27;20390;-74
2022/10/05 08:48:50;;;;;;;2.30;1.30;;;19.00;99.90;;;;;;5132327;27;20413;-73
2022/10/05 08:51:34;;;;;;;3.50;1.15;;;19.20;99.90;;;;;;5133853;27;20419;-73
2022/10/05 08:54:27;;;;;;;1.20;1.10;;;19.30;99.90;;;;;;5133735;27;20386;-73
2022/10/05 08:57:02;;;;;;;2.00;1.20;;;19.50;99.90;;;;;;5133772;27;20451;-73
2022/10/05 09:00:06;;;;;;;1.25;1.10;;;19.40;99.90;;;;;;5133677;27;20409;-73
2022/10/05 09:02:55;;;;;;;1.20;1.10;;;19.50;99.90;;;;;;5133400;27;20402;-73
2022/10/05 09:05:45;;;;;;;1.52;1.30;;;19.50;99.90;;;;;;5132603;27;20702;-73
2022/10/05 09:08:10;;;;;;;0.90;0.90;;;19.60;99.90;;;;;;5133337;27;20423;-72
2022/10/05 09:11:02;;;;;;;2.10;1.20;;;19.90;99.90;;;;;;5132237;27;20379;-74
2022/10/05 09:13:41;;;;;;;1.17;1.05;;;19.80;99.90;;;;;;5133275;27;20394;-73
2022/10/05 09:16:22;;;;;;;1.00;0.90;;;19.90;99.90;;;;;;5132931;27;20391;-73
2022/10/05 09:18:56;;;;;;;1.80;1.02;;;19.90;99.90;;;;;;5133375;27;20476;-73
2022/10/05 09:21:42;;;;;;;1.60;0.90;;;20.00;99.90;;;;;;5133600;27;20504;-74
2022/10/05 09:24:13;;;;;;;1.60;1.20;;;20.00;99.60;;;;;;5112527;28;20750;-73
2022/10/05 09:26:59;;;;;;;1.30;1.20;;;20.10;98.10;;;;;;5112535;28;21074;-73
2022/10/05 09:29:42;;;;;;;1.10;1.00;;;20.10;97.70;;;;;;5113333;27;20379;-73
2022/10/05 09:32:41;;;;;;;1.77;1.30;;;20.10;97.80;;;;;;5132974;27;20394;-73
2022/10/05 09:35:45;;;;;;;2.23;1.00;;;20.10;99.10;;;;;;5132803;27;20459;-73
2022/10/05 09:38:32;;;;;;;1.20;1.10;;;20.10;98.30;;;;;;5120242;27;20439;-73
2022/10/05 09:41:31;;;;;;;0.93;0.93;;;20.20;97.10;;;;;;5133035;27;20740;-73
2022/10/05 09:43:59;;;;;;;1.05;0.85;;;20.20;95.60;;;;;;5132737;27;20370;-73
2022/10/05 09:46:31;;;;;;;1.83;1.30;;;20.40;95.80;;;;;;5132813;27;20381;-73
2022/10/05 09:49:27;;;;;;;1.05;0.95;;;20.30;95.80;;;;;;5132881;27;20407;-73
2022/10/05 09:52:30;;;;;;;1.02;0.70;;;20.40;94.90;;;;;;5127931;27;20810;-72
2022/10/05 09:55:05;;;;;;;1.10;0.60;;;20.50;91.00;;;;;;5131985;27;20386;-72
2022/10/05 09:57:43;;;;;;;1.27;0.82;;;20.60;91.20;;;;;;5132140;27;20737;-73
2022/10/05 10:00:15;;;;;;;0.80;0.60;;;20.80;89.90;;;;;;5132446;27;20399;-73
2022/10/05 10:03:01;;;;;;;1.17;0.80;;;20.80;88.80;;;;;;5132367;27;20380;-73
2022/10/05 10:05:47;;;;;;;1.02;0.93;;;20.80;86.00;;;;;;5132374;27;20844;-72
2022/10/05 10:08:22;;;;;;;1.30;0.60;;;20.80;87.00;;;;;;5116994;27;20395;-72
2022/10/05 10:11:02;;;;;;;0.90;0.80;;;21.00;87.20;;;;;;5132132;27;20395;-73
2022/10/05 10:13:44;;;;;;;3.30;0.80;;;20.90;87.70;;;;;;5132027;27;20366;-73
2022/10/05 10:16:33;;;;;;;0.90;0.60;;;21.00;85.70;;;;;;5132010;27;20390;-73
2022/10/05 10:19:01;;;;;;;0.80;0.70;;;21.10;82.90;;;;;;5132198;27;20441;-73
2022/10/05 10:21:51;;;;;;;1.80;0.70;;;21.20;82.30;;;;;;5132066;27;20777;-73
2022/10/05 10:24:19;;;;;;;0.80;0.70;;;21.10;87.00;;;;;;5121837;27;20391;-73
2022/10/05 10:26:54;;;;;;;1.00;0.77;;;21.30;85.50;;;;;;5129114;27;20382;-73
2022/10/05 10:29:41;;;;;;;0.60;0.60;;;21.30;81.40;;;;;;5130084;27;20399;-72
2022/10/05 10:32:09;;;;;;;1.00;0.70;;;21.50;79.10;;;;;;5125170;27;20867;-73
2022/10/05 10:35:12;;;;;;;1.10;0.80;;;21.50;79.60;;;;;;5132630;27;20400;-73
2022/10/05 10:37:58;;;;;;;1.00;0.60;;;21.60;74.70;;;;;;5127838;27;20393;-72
2022/10/05 10:40:35;;;;;;;1.40;0.70;;;21.70;74.50;;;;;;5126097;27;20434;-73
2022/10/05 10:43:39;;;;;;;1.40;0.70;;;21.80;72.10;;;;;;5120259;27;20421;-73
2022/10/05 10:46:12;;;;;;;1.27;0.50;;;22.00;71.40;;;;;;5120383;27;20403;-73
2022/10/05 10:49:00;;;;;;;2.40;0.50;;;22.00;69.20;;;;;;5138958;27;20382;-73
2022/10/05 10:51:35;;;;;;;0.85;0.60;;;22.10;67.70;;;;;;5143818;27;20418;-74
2022/10/05 10:54:25;;;;;;;1.10;0.50;;;22.30;66.40;;;;;;5133655;27;20435;-73
2022/10/05 10:56:57;;;;;;;1.10;0.60;;;22.40;67.20;;;;;;5130912;27;20416;-72
2022/10/05 10:59:53;;;;;;;0.73;0.55;;;22.60;67.60;;;;;;5131414;27;20390;-73
2022/10/05 11:02:58;;;;;;;0.50;0.50;;;22.60;66.90;;;;;;5129880;27;20407;-73
2022/10/05 11:05:32;;;;;;;0.70;0.60;;;22.70;66.60;;;;;;5130260;27;20394;-73
2022/10/05 11:08:45;;;;;;;1.65;0.60;;;22.80;66.40;;;;;;5129942;27;20432;-73
2022/10/05 11:11:29;;;;;;;0.80;0.60;;;22.90;65.80;;;;;;5130854;27;20391;-73
2022/10/05 11:14:01;;;;;;;0.82;0.60;;;23.00;64.20;;;;;;5130466;27;20386;-72
2022/10/05 11:16:36;;;;;;;0.80;0.60;;;23.50;64.10;;;;;;5129891;27;20409;-73
2022/10/05 11:19:14;;;;;;;0.90;0.80;;;24.00;60.90;;;;;;5130721;27;20460;-72
2022/10/05 11:22:04;;;;;;;1.00;0.70;;;24.50;59.40;;;;;;5128933;28;20522;-73
2022/10/05 11:24:42;;;;;;;4.53;0.80;;;24.80;58.70;;;;;;5129854;27;20385;-73
2022/10/05 11:27:34;;;;;;;0.85;0.85;;;25.00;58.10;;;;;;5130844;27;20383;-73
2022/10/05 11:30:18;;;;;;;0.80;0.70;;;25.20;57.50;;;;;;5134556;27;20898;-73
2022/10/05 11:33:02;;;;;;;1.50;0.80;;;25.60;56.60;;;;;;5149661;27;20476;-74
2022/10/05 11:35:47;;;;;;;0.70;0.50;;;25.90;56.30;;;;;;5134625;27;20423;-73
2022/10/05 11:38:50;;;;;;;0.73;0.60;;;25.50;56.50;;;;;;5145967;27;20378;-73
2022/10/05 11:41:47;;;;;;;0.80;0.70;;;25.10;58.40;;;;;;5138585;27;20782;-73
2022/10/05 11:44:58;;;;;;;0.63;0.63;;;25.30;58.10;;;;;;5118588;27;20409;-75
2022/10/05 11:47:29;;;;;;;1.45;0.70;;;24.90;57.20;;;;;;5119396;28;20406;-73
2022/10/05 11:50:16;;;;;;;1.00;0.70;;;25.40;58.70;;;;;;5131047;27;20756;-73
2022/10/05 11:53:06;;;;;;;1.40;0.90;;;25.60;57.80;;;;;;5129283;28;20383;-73
2022/10/05 11:55:40;;;;;;;0.80;0.70;;;25.30;57.90;;;;;;5130859;27;20393;-73
2022/10/05 11:58:19;;;;;;;1.90;0.90;;;25.80;56.70;;;;;;5130781;28;20382;-73
2022/10/05 12:00:59;;;;;;;1.30;0.70;;;26.20;57.10;;;;;;5130702;27;20393;-73
2022/10/05 12:03:33;;;;;;;1.30;0.70;;;26.20;57.10;;;;;;5119633;28;20457;-73
2022/10/05 12:06:35;;;;;;;0.73;0.70;;;26.00;58.10;;;;;;5130827;28;20453;-73
2022/10/05 12:09:20;;;;;;;1.42;0.70;;;25.60;59.80;;;;;;5130515;27;20373;-73
2022/10/05 12:11:52;;;;;;;2.30;1.10;;;25.40;58.70;;;;;;5130693;28;20910;-72
2022/10/05 12:14:40;;;;;;;1.58;1.00;;;25.20;59.70;;;;;;5123698;28;20413;-73
2022/10/05 12:17:42;;;;;;;1.00;0.90;;;24.60;60.40;;;;;;5125378;27;20400;-73
2022/10/05 12:20:37;;;;;;;2.40;1.10;;;24.40;62.80;;;;;;5092564;27;21356;-72
2022/10/05 12:23:12;;;;;;;1.10;0.93;;;24.50;62.00;;;;;;5122477;27;20402;-73
2022/10/05 12:26:23;;;;;;;1.40;0.90;;;24.40;62.50;;;;;;5132582;27;20391;-73
2022/10/05 12:28:54;;;;;;;1.33;0.80;;;24.60;62.10;;;;;;5116915;27;20479;-72
2022/10/05 12:31:27;;;;;;;1.40;1.00;;;24.30;62.10;;;;;;5122059;27;20465;-73
2022/10/05 12:34:05;;;;;;;1.17;1.08;;;24.10;64.50;;;;;;5120142;27;20399;-74
2022/10/05 12:36:53;;;;;;;1.00;0.80;;;24.20;65.90;;;;;;5122344;27;20411;-73
2022/10/05 12:40:07;;;;;;;1.17;1.00;;;24.30;64.40;;;;;;5124203;27;20859;-76
2022/10/05 12:42:41;;;;;;;1.30;1.00;;;24.60;63.90;;;;;;5038332;28;20518;-75
2022/10/05 12:45:13;;;;;;;1.80;1.20;;;24.40;71.80;;;;;;5117586;27;20410;-74
2022/10/05 12:48:01;;;;;;;1.20;1.08;;;24.10;65.40;;;;;;5121948;27;20484;-74
2022/10/05 12:51:01;;;;;;;1.77;1.10;;;24.40;68.10;;;;;;5123698;27;20389;-73
2022/10/05 12:53:47;;;;;;;1.20;1.10;;;24.40;65.70;;;;;;5098097;27;20868;-74
2022/10/05 12:56:23;;;;;;;1.80;1.20;;;24.50;67.00;;;;;;5123990;27;20370;-74
2022/10/05 12:58:59;;;;;;;1.23;0.95;;;24.40;67.60;;;;;;5122081;27;20484;-74
2022/10/05 13:01:43;;;;;;;2.30;1.00;;;24.40;67.90;;;;;;5123106;27;20870;-75
2022/10/05 13:04:30;;;;;;;1.70;1.30;;;24.40;68.00;;;;;;5124147;27;20393;-74
2022/10/05 13:07:21;;;;;;;1.42;1.10;;;24.60;67.90;;;;;;5124121;27;20380;-74
2022/10/05 13:10:14;;;;;;;1.80;1.10;;;24.60;69.60;;;;;;5114839;27;20507;-74
2022/10/05 13:12:59;;;;;;;1.20;1.10;;;24.70;72.20;;;;;;5125181;27;20402;-74
2022/10/05 13:15:43;;;;;;;2.50;1.30;;;24.70;71.40;;;;;;5132299;27;20487;-74
2022/10/05 13:18:48;;;;;;;2.08;1.20;;;24.90;70.50;;;;;;5131907;27;20969;-74
2022/10/05 13:21:42;;;;;;;1.40;1.30;;;25.00;69.00;;;;;;5124521;27;20400;-74
2022/10/05 13:24:30;;;;;;;1.17;1.00;;;24.70;70.90;;;;;;5112299;28;20804;-74
2022/10/05 13:27:07;;;;;;;2.30;1.30;;;24.70;73.70;;;;;;5111251;28;20400;-74
2022/10/05 13:30:03;;;;;;;1.80;1.13;;;24.90;70.70;;;;;;5111603;28;20452;-74
2022/10/05 13:32:35;;;;;;;1.50;1.30;;;25.00;69.50;;;;;;5112532;28;20364;-74
2022/10/05 13:35:25;;;;;;;1.20;1.10;;;24.90;71.30;;;;;;5132645;27;20872;-74
2022/10/05 13:38:21;;;;;;;2.17;1.38;;;24.90;71.30;;;;;;5132975;27;20366;-74
2022/10/05 13:41:13;;;;;;;1.60;1.40;;;25.10;70.40;;;;;;5132350;27;20760;-73
2022/10/05 13:43:55;;;;;;;1.90;1.20;;;25.20;69.30;;;;;;5132607;27;20479;-73
2022/10/05 13:46:37;;;;;;;1.30;1.10;;;25.30;71.60;;;;;;5132824;27;20385;-74
2022/10/05 13:49:21;;;;;;;1.40;1.30;;;25.10;69.40;;;;;;5132221;27;20386;-74
2022/10/05 13:52:01;;;;;;;1.10;1.00;;;24.90;69.90;;;;;;5131335;27;20375;-74
2022/10/05 13:54:46;;;;;;;1.35;1.25;;;25.10;70.40;;;;;;5132143;27;20883;-74
2022/10/05 13:57:20;;;;;;;1.57;1.40;;;25.00;70.60;;;;;;5132450;27;20367;-74
2022/10/05 14:00:01;;;;;;;1.50;0.90;;;24.70;70.90;;;;;;5132321;27;20432;-74
2022/10/05 14:02:29;;;;;;;2.40;1.30;;;24.90;73.70;;;;;;5132334;27;20367;-71
2022/10/05 14:05:01;;;;;;;2.78;1.20;;;24.70;71.20;;;;;;5132236;27;20374;-73
2022/10/05 14:07:46;;;;;;;1.30;1.20;;;24.80;72.80;;;;;;5132286;27;20380;-74
2022/10/05 14:10:13;;;;;;;1.30;1.20;;;24.90;72.70;;;;;;5111776;28;20388;-74
2022/10/05 14:12:42;;;;;;;1.45;1.30;;;24.90;73.00;;;;;;5111430;28;20415;-73